Strona główna
METAR-TAF:

METAR-TAF

Lotnisko :

Port lotniczy Maiduguri

Maiduguri, Nigeria

Szerokość geograficzna: 11-51N, Długość geograficzna: 013-05E, wysokość: 354 m

METAR: brakujący

czas: 15:49 (14:49 UTC)

Prognoza

Raport powstał 3 godziny i 49 minut temu, godzina 11:00 UTC
Prognoza ważna od 21 godzina 12 UTC do 22 godzina 18 UTC
Wiatr 10 kt od zachodnio-południowy zachód
Widzialność 10 km lub więcej
Brak chmur poniżej 1500 m i brak chmur cumulonimbus
Przejściowo
od 21 godzina 18 UTC do 21 godzina 22 UTC
Rozproszone chmury na wysokości 1300 ft
Mało chmury na wysokości 2000 ft, Cumulonimbus.
burza,

TAF: DNMA 211100Z 2112/2218 24010KT CAVOK TEMPO 2118/2122 TS SCT013 FEW020CB

Obserwacja i prognoza pogody dla ponad 4000 lotnisk (raport METAR i TAF).

Dostępne stacje oznaczono żółtymi i czerwonymi punktami na mapie.

Najedź kursorem aby zobaczyć nazwę stacji.

Kliknij aby zobaczyć obserwacje i prognozy pogody.

Aby zmienić mapę: kliknij na zielony przycisk z czarnym krzyżykiem, aby powiększyć; na zielony przycisk z myślnikiem, aby pomniejszyć; na zielone strzałki, aby przejść do map sąsiednich.


METAR-TAF: